sensor_id;sensor_type;location;lat;lon;timestamp;pressure;altitude;pressure_sealevel;temperature;humidity
45369;BME280;51342;55.250;37.668;2023-03-01T00:03:49;98826.75;;;-6.09;63.51
45369;BME280;51342;55.250;37.668;2023-03-01T00:06:21;98812.88;;;-6.21;63.29
45369;BME280;51342;55.250;37.668;2023-03-01T00:08:54;98823.03;;;-6.28;63.34
45369;BME280;51342;55.250;37.668;2023-03-01T00:11:35;98832.97;;;-6.37;63.38
45369;BME280;51342;55.250;37.668;2023-03-01T00:14:10;98830.84;;;-6.41;63.60
45369;BME280;51342;55.250;37.668;2023-03-01T00:16:46;98822.47;;;-6.49;63.32
45369;BME280;51342;55.250;37.668;2023-03-01T00:19:19;98819.97;;;-6.49;63.64
45369;BME280;51342;55.250;37.668;2023-03-01T00:22:00;98811.59;;;-6.56;63.36
45369;BME280;51342;55.250;37.668;2023-03-01T00:24:32;98804.16;;;-6.71;63.45
45369;BME280;51342;55.250;37.668;2023-03-01T00:27:13;98825.97;;;-6.78;63.30
45369;BME280;51342;55.250;37.668;2023-03-01T00:29:50;98804.19;;;-6.94;63.37
45369;BME280;51342;55.250;37.668;2023-03-01T00:32:23;98825.38;;;-6.91;63.35
45369;BME280;51342;55.250;37.668;2023-03-01T00:34:56;98815.91;;;-7.01;63.43
45369;BME280;51342;55.250;37.668;2023-03-01T00:37:30;98820.81;;;-7.10;63.63
45369;BME280;51342;55.250;37.668;2023-03-01T00:40:01;98811.31;;;-7.12;63.80
45369;BME280;51342;55.250;37.668;2023-03-01T00:42:37;98805.63;;;-7.18;63.83
45369;BME280;51342;55.250;37.668;2023-03-01T00:45:09;98806.47;;;-7.11;64.17
45369;BME280;51342;55.250;37.668;2023-03-01T00:47:42;98810.06;;;-7.09;63.99
45369;BME280;51342;55.250;37.668;2023-03-01T00:50:14;98802.91;;;-7.13;64.17
45369;BME280;51342;55.250;37.668;2023-03-01T00:52:47;98809.88;;;-7.10;64.37
45369;BME280;51342;55.250;37.668;2023-03-01T00:55:18;98829.22;;;-7.02;64.26
45369;BME280;51342;55.250;37.668;2023-03-01T00:57:50;98804.31;;;-7.15;64.57
45369;BME280;51342;55.250;37.668;2023-03-01T01:00:22;98795.72;;;-7.17;64.63
45369;BME280;51342;55.250;37.668;2023-03-01T01:02:54;98807.25;;;-7.19;64.55
45369;BME280;51342;55.250;37.668;2023-03-01T01:05:29;98805.28;;;-7.22;64.82
45369;BME280;51342;55.250;37.668;2023-03-01T01:08:01;98798.16;;;-7.26;64.75
45369;BME280;51342;55.250;37.668;2023-03-01T01:10:36;98805.13;;;-7.23;64.78
45369;BME280;51342;55.250;37.668;2023-03-01T01:13:08;98818.28;;;-7.10;65.13
45369;BME280;51342;55.250;37.668;2023-03-01T01:15:43;98815.47;;;-7.13;65.10
45369;BME280;51342;55.250;37.668;2023-03-01T01:18:18;98801.66;;;-7.16;65.48
45369;BME280;51342;55.250;37.668;2023-03-01T01:20:49;98796.47;;;-7.18;65.38
45369;BME280;51342;55.250;37.668;2023-03-01T01:23:21;98812.56;;;-7.09;65.56
45369;BME280;51342;55.250;37.668;2023-03-01T01:25:53;98797.19;;;-7.19;65.38
45369;BME280;51342;55.250;37.668;2023-03-01T01:28:25;98802.22;;;-7.19;65.58
45369;BME280;51342;55.250;37.668;2023-03-01T01:31:05;98809.41;;;-7.22;65.23
45369;BME280;51342;55.250;37.668;2023-03-01T01:33:37;98798.53;;;-7.30;65.67
45369;BME280;51342;55.250;37.668;2023-03-01T01:36:10;98802.97;;;-7.27;65.84
45369;BME280;51342;55.250;37.668;2023-03-01T01:38:42;98808.91;;;-7.27;65.57
45369;BME280;51342;55.250;37.668;2023-03-01T01:41:14;98799.47;;;-7.36;65.76
45369;BME280;51342;55.250;37.668;2023-03-01T01:44:34;98804.50;;;-7.36;65.56
45369;BME280;51342;55.250;37.668;2023-03-01T01:47:09;98787.34;;;-7.55;65.61
45369;BME280;51342;55.250;37.668;2023-03-01T01:49:50;98790.78;;;-7.61;65.40
45369;BME280;51342;55.250;37.668;2023-03-01T01:52:26;98803.34;;;-7.54;65.43
45369;BME280;51342;55.250;37.668;2023-03-01T01:55:15;98802.88;;;-7.73;65.70
45369;BME280;51342;55.250;37.668;2023-03-01T01:57:52;98813.09;;;-7.71;65.70
45369;BME280;51342;55.250;37.668;2023-03-01T02:00:28;98795.44;;;-7.87;65.63
45369;BME280;51342;55.250;37.668;2023-03-01T02:03:06;98798.13;;;-7.93;65.70
45369;BME280;51342;55.250;37.668;2023-03-01T02:05:58;98827.53;;;-7.92;65.74
45369;BME280;51342;55.250;37.668;2023-03-01T02:08:36;98818.25;;;-8.07;65.77
45369;BME280;51342;55.250;37.668;2023-03-01T02:11:18;98799.28;;;-8.19;66.17
45369;BME280;51342;55.250;37.668;2023-03-01T02:13:54;98797.47;;;-8.13;65.83
45369;BME280;51342;55.250;37.668;2023-03-01T02:16:34;98801.06;;;-8.04;65.83
45369;BME280;51342;55.250;37.668;2023-03-01T02:19:07;98806.78;;;-8.05;65.62
45369;BME280;51342;55.250;37.668;2023-03-01T02:21:59;98821.84;;;-8.05;65.66
45369;BME280;51342;55.250;37.668;2023-03-01T02:27:15;98797.00;;;-8.32;66.10
45369;BME280;51342;55.250;37.668;2023-03-01T02:29:48;98809.69;;;-8.16;66.26
45369;BME280;51342;55.250;37.668;2023-03-01T02:32:20;98800.03;;;-8.20;66.25
45369;BME280;51342;55.250;37.668;2023-03-01T02:34:56;98806.06;;;-8.11;66.18
45369;BME280;51342;55.250;37.668;2023-03-01T02:37:29;98819.16;;;-7.99;65.99
45369;BME280;51342;55.250;37.668;2023-03-01T02:40:04;98810.75;;;-8.14;66.08
45369;BME280;51342;55.250;37.668;2023-03-01T02:42:53;98803.06;;;-8.23;65.99
45369;BME280;51342;55.250;37.668;2023-03-01T02:45:29;98809.88;;;-8.22;66.14
45369;BME280;51342;55.250;37.668;2023-03-01T02:48:07;98810.94;;;-8.20;66.25
45369;BME280;51342;55.250;37.668;2023-03-01T02:54:36;98822.94;;;-8.10;66.20
45369;BME280;51342;55.250;37.668;2023-03-01T02:57:05;98798.94;;;-8.22;66.44
45369;BME280;51342;55.250;37.668;2023-03-01T02:59:45;98805.56;;;-8.16;66.50
45369;BME280;51342;55.250;37.668;2023-03-01T03:02:22;98822.19;;;-8.02;66.37
45369;BME280;51342;55.250;37.668;2023-03-01T03:05:26;98801.25;;;-8.10;66.16
45369;BME280;51342;55.250;37.668;2023-03-01T03:08:15;98797.47;;;-8.13;66.42
45369;BME280;51342;55.250;37.668;2023-03-01T03:11:03;98797.13;;;-8.09;66.64
45369;BME280;51342;55.250;37.668;2023-03-01T03:13:41;98808.75;;;-8.03;66.49
45369;BME280;51342;55.250;37.668;2023-03-01T03:16:23;98818.38;;;-7.91;66.60
45369;BME280;51342;55.250;37.668;2023-03-01T03:19:07;98807.84;;;-8.03;66.73
45369;BME280;51342;55.250;37.668;2023-03-01T03:21:55;98816.44;;;-7.94;66.83
45369;BME280;51342;55.250;37.668;2023-03-01T03:24:34;98805.88;;;-7.98;66.95
45369;BME280;51342;55.250;37.668;2023-03-01T03:27:15;98816.44;;;-7.94;66.88
45369;BME280;51342;55.250;37.668;2023-03-01T03:29:51;98812.47;;;-7.92;66.97
45369;BME280;51342;55.250;37.668;2023-03-01T03:32:26;98819.25;;;-7.84;66.95
45369;BME280;51342;55.250;37.668;2023-03-01T03:35:04;98810.84;;;-7.91;66.95
45369;BME280;51342;55.250;37.668;2023-03-01T03:37:58;98824.81;;;-7.86;67.18
45369;BME280;51342;55.250;37.668;2023-03-01T03:40:43;98823.94;;;-7.87;67.11
45369;BME280;51342;55.250;37.668;2023-03-01T03:43:18;98815.19;;;-7.97;67.12
45369;BME280;51342;55.250;37.668;2023-03-01T03:45:51;98801.91;;;-7.96;67.35
45369;BME280;51342;55.250;37.668;2023-03-01T03:48:32;98802.28;;;-8.01;67.17
45369;BME280;51342;55.250;37.668;2023-03-01T03:51:09;98805.66;;;-8.00;67.37
45369;BME280;51342;55.250;37.668;2023-03-01T03:53:44;98827.16;;;-7.88;67.33
45369;BME280;51342;55.250;37.668;2023-03-01T03:56:26;98820.38;;;-7.96;67.18
45369;BME280;51342;55.250;37.668;2023-03-01T03:59:08;98815.91;;;-7.98;67.22
45369;BME280;51342;55.250;37.668;2023-03-01T04:01:45;98820.19;;;-7.97;67.45
45369;BME280;51342;55.250;37.668;2023-03-01T04:04:17;98836.69;;;-7.92;67.43
45369;BME280;51342;55.250;37.668;2023-03-01T04:06:50;98843.50;;;-7.91;67.32
45369;BME280;51342;55.250;37.668;2023-03-01T04:09:27;98838.13;;;-8.02;67.50
45369;BME280;51342;55.250;37.668;2023-03-01T04:12:01;98840.84;;;-8.07;67.53
45369;BME280;51342;55.250;37.668;2023-03-01T04:14:36;98847.66;;;-7.99;67.56
45369;BME280;51342;55.250;37.668;2023-03-01T04:17:08;98853.56;;;-7.98;67.40
45369;BME280;51342;55.250;37.668;2023-03-01T04:19:46;98850.69;;;-8.02;67.54
45369;BME280;51342;55.250;37.668;2023-03-01T04:22:20;98832.63;;;-8.13;67.66
45369;BME280;51342;55.250;37.668;2023-03-01T04:24:51;98848.94;;;-8.10;67.56
45369;BME280;51342;55.250;37.668;2023-03-01T04:27:23;98835.13;;;-8.13;67.56
45369;BME280;51342;55.250;37.668;2023-03-01T04:29:56;98831.91;;;-8.19;67.45
45369;BME280;51342;55.250;37.668;2023-03-01T04:32:30;98825.66;;;-8.30;67.63
45369;BME280;51342;55.250;37.668;2023-03-01T04:35:15;98835.91;;;-8.36;67.58
45369;BME280;51342;55.250;37.668;2023-03-01T04:37:53;98862.03;;;-8.27;67.36
45369;BME280;51342;55.250;37.668;2023-03-01T04:40:25;98855.13;;;-8.43;67.54
45369;BME280;51342;55.250;37.668;2023-03-01T04:42:57;98864.78;;;-8.39;67.66
45369;BME280;51342;55.250;37.668;2023-03-01T04:45:31;98884.84;;;-8.39;67.51
45369;BME280;51342;55.250;37.668;2023-03-01T04:48:08;98864.78;;;-8.53;67.46
45369;BME280;51342;55.250;37.668;2023-03-01T04:50:40;98862.09;;;-8.55;67.45
45369;BME280;51342;55.250;37.668;2023-03-01T04:53:12;98853.34;;;-8.66;67.71
45369;BME280;51342;55.250;37.668;2023-03-01T04:55:50;98875.72;;;-8.60;67.58
45369;BME280;51342;55.250;37.668;2023-03-01T04:58:52;98869.63;;;-8.76;67.25
45369;BME280;51342;55.250;37.668;2023-03-01T05:02:08;98865.69;;;-8.82;67.61
45369;BME280;51342;55.250;37.668;2023-03-01T05:17:01;98889.16;;;-8.38;67.05
45369;BME280;51342;55.250;37.668;2023-03-01T05:19:34;98895.00;;;-8.23;67.00
45369;BME280;51342;55.250;37.668;2023-03-01T05:22:06;98899.44;;;-8.07;67.02
45369;BME280;51342;55.250;37.668;2023-03-01T05:24:38;98902.28;;;-7.89;66.85
45369;BME280;51342;55.250;37.668;2023-03-01T05:27:09;98899.22;;;-7.80;66.84
45369;BME280;51342;55.250;37.668;2023-03-01T05:29:40;98903.13;;;-7.67;66.87
45369;BME280;51342;55.250;37.668;2023-03-01T05:32:12;98892.16;;;-7.54;66.63
45369;BME280;51342;55.250;37.668;2023-03-01T05:34:46;98894.06;;;-7.44;66.63
45369;BME280;51342;55.250;37.668;2023-03-01T05:37:18;98895.28;;;-7.33;66.54
45369;BME280;51342;55.250;37.668;2023-03-01T05:39:50;98890.91;;;-7.20;66.49
45369;BME280;51342;55.250;37.668;2023-03-01T05:42:22;98894.78;;;-7.08;66.31
45369;BME280;51342;55.250;37.668;2023-03-01T05:44:54;98898.66;;;-6.96;66.29
45369;BME280;51342;55.250;37.668;2023-03-01T05:47:25;98902.53;;;-6.83;66.27
45369;BME280;51342;55.250;37.668;2023-03-01T05:49:56;98898.84;;;-6.71;66.18
45369;BME280;51342;55.250;37.668;2023-03-01T05:52:29;98916.88;;;-6.52;66.02
45369;BME280;51342;55.250;37.668;2023-03-01T05:55:00;98901.66;;;-6.38;65.66
45369;BME280;51342;55.250;37.668;2023-03-01T05:57:31;98911.78;;;-6.22;65.76
45369;BME280;51342;55.250;37.668;2023-03-01T06:00:03;98913.03;;;-6.03;65.44
45369;BME280;51342;55.250;37.668;2023-03-01T06:02:43;98917.91;;;-5.89;65.49
45369;BME280;51342;55.250;37.668;2023-03-01T06:05:15;98918.16;;;-5.78;65.25
45369;BME280;51342;55.250;37.668;2023-03-01T06:07:47;98913.34;;;-5.68;64.77
45369;BME280;51342;55.250;37.668;2023-03-01T06:10:19;98913.59;;;-5.58;65.01
45369;BME280;51342;55.250;37.668;2023-03-01T06:12:51;98917.41;;;-5.46;65.01
45369;BME280;51342;55.250;37.668;2023-03-01T06:15:23;98921.97;;;-5.35;64.69
45369;BME280;51342;55.250;37.668;2023-03-01T06:17:55;98919.03;;;-5.30;64.45
45369;BME280;51342;55.250;37.668;2023-03-01T06:20:29;98922.94;;;-5.25;64.36
45369;BME280;51342;55.250;37.668;2023-03-01T06:23:01;98932.63;;;-5.21;64.26
45369;BME280;51342;55.250;37.668;2023-03-01T06:25:34;98929.38;;;-5.20;64.11
45369;BME280;51342;55.250;37.668;2023-03-01T06:28:06;98928.28;;;-5.22;64.17
45369;BME280;51342;55.250;37.668;2023-03-01T06:30:37;98939.03;;;-5.16;64.14
45369;BME280;51342;55.250;37.668;2023-03-01T06:33:09;98945.63;;;-5.10;64.17
45369;BME280;51342;55.250;37.668;2023-03-01T06:35:40;98935.28;;;-5.04;63.86
45369;BME280;51342;55.250;37.668;2023-03-01T06:38:12;98941.28;;;-4.95;63.88
45369;BME280;51342;55.250;37.668;2023-03-01T06:40:51;98943.41;;;-4.91;63.67
45369;BME280;51342;55.250;37.668;2023-03-01T06:43:23;98949.06;;;-4.85;63.85
45369;BME280;51342;55.250;37.668;2023-03-01T06:45:55;98936.19;;;-4.79;63.72
45369;BME280;51342;55.250;37.668;2023-03-01T06:48:27;98940.56;;;-4.69;63.42
45369;BME280;51342;55.250;37.668;2023-03-01T06:51:00;98945.66;;;-4.61;63.16
45369;BME280;51342;55.250;37.668;2023-03-01T06:53:34;98945.00;;;-4.51;63.14
45369;BME280;51342;55.250;37.668;2023-03-01T06:56:06;98938.53;;;-4.40;62.84
45369;BME280;51342;55.250;37.668;2023-03-01T06:58:37;98943.19;;;-4.28;62.81
45369;BME280;51342;55.250;37.668;2023-03-01T07:01:09;98942.34;;;-4.19;62.82
45369;BME280;51342;55.250;37.668;2023-03-01T07:03:40;98939.69;;;-4.12;62.88
45369;BME280;51342;55.250;37.668;2023-03-01T07:06:12;98944.06;;;-4.03;62.81
45369;BME280;51342;55.250;37.668;2023-03-01T07:08:43;98950.91;;;-3.93;62.67
45369;BME280;51342;55.250;37.668;2023-03-01T07:11:15;98956.91;;;-3.84;62.58
45369;BME280;51342;55.250;37.668;2023-03-01T07:13:46;98965.22;;;-3.76;62.41
45369;BME280;51342;55.250;37.668;2023-03-01T07:16:18;98966.72;;;-3.69;62.04
45369;BME280;51342;55.250;37.668;2023-03-01T07:18:51;98962.28;;;-3.63;62.02
45369;BME280;51342;55.250;37.668;2023-03-01T07:21:22;98965.75;;;-3.63;62.03
45369;BME280;51342;55.250;37.668;2023-03-01T07:23:54;98967.25;;;-3.56;61.93
45369;BME280;51342;55.250;37.668;2023-03-01T07:26:25;98958.63;;;-3.50;61.79
45369;BME280;51342;55.250;37.668;2023-03-01T07:28:59;98956.84;;;-3.42;61.82
45369;BME280;51342;55.250;37.668;2023-03-01T07:31:31;98963.41;;;-3.35;61.76
45369;BME280;51342;55.250;37.668;2023-03-01T07:34:03;98960.16;;;-3.26;61.77
45369;BME280;51342;55.250;37.668;2023-03-01T07:36:34;98956.28;;;-3.22;61.35
45369;BME280;51342;55.250;37.668;2023-03-01T07:39:05;98962.53;;;-3.18;61.42
45369;BME280;51342;55.250;37.668;2023-03-01T07:41:38;98965.66;;;-3.12;61.60
45369;BME280;51342;55.250;37.668;2023-03-01T07:44:09;98967.91;;;-2.98;61.41
45369;BME280;51342;55.250;37.668;2023-03-01T07:46:41;98974.00;;;-2.87;60.95
45369;BME280;51342;55.250;37.668;2023-03-01T07:49:12;98978.47;;;-2.85;60.63
45369;BME280;51342;55.250;37.668;2023-03-01T07:51:43;98974.00;;;-2.87;60.57
45369;BME280;51342;55.250;37.668;2023-03-01T07:54:15;98984.28;;;-2.86;60.55
45369;BME280;51342;55.250;37.668;2023-03-01T07:56:46;98985.91;;;-2.86;60.37
45369;BME280;51342;55.250;37.668;2023-03-01T07:59:17;98983.38;;;-2.69;60.13
45369;BME280;51342;55.250;37.668;2023-03-01T08:01:49;98989.94;;;-2.54;59.84
45369;BME280;51342;55.250;37.668;2023-03-01T08:04:20;98996.47;;;-2.47;59.88
45369;BME280;51342;55.250;37.668;2023-03-01T08:06:53;99000.63;;;-2.39;59.75
45369;BME280;51342;55.250;37.668;2023-03-01T08:09:26;99001.22;;;-2.42;59.90
45369;BME280;51342;55.250;37.668;2023-03-01T08:11:57;98999.72;;;-2.31;59.39
45369;BME280;51342;55.250;37.668;2023-03-01T08:14:32;98997.91;;;-2.23;59.18
45369;BME280;51342;55.250;37.668;2023-03-01T08:17:04;98991.47;;;-2.11;59.48
45369;BME280;51342;55.250;37.668;2023-03-01T08:19:35;98993.69;;;-2.05;58.81
45369;BME280;51342;55.250;37.668;2023-03-01T08:22:07;98982.66;;;-1.97;58.96
45369;BME280;51342;55.250;37.668;2023-03-01T08:24:38;98983.03;;;-1.84;58.02
45369;BME280;51342;55.250;37.668;2023-03-01T08:27:09;98982.13;;;-1.76;57.75
45369;BME280;51342;55.250;37.668;2023-03-01T08:29:43;98982.38;;;-1.73;57.02
45369;BME280;51342;55.250;37.668;2023-03-01T08:32:14;98987.44;;;-1.64;56.97
45369;BME280;51342;55.250;37.668;2023-03-01T08:34:47;98975.03;;;-1.61;56.89
45369;BME280;51342;55.250;37.668;2023-03-01T08:37:18;98983.50;;;-1.52;57.14
45369;BME280;51342;55.250;37.668;2023-03-01T08:39:50;98975.38;;;-1.48;56.95
45369;BME280;51342;55.250;37.668;2023-03-01T08:42:21;98991.91;;;-1.34;56.32
45369;BME280;51342;55.250;37.668;2023-03-01T08:44:52;98993.34;;;-1.27;56.51
45369;BME280;51342;55.250;37.668;2023-03-01T08:47:25;98988.69;;;-1.23;56.09
45369;BME280;51342;55.250;37.668;2023-03-01T08:49:57;98988.38;;;-1.17;55.92
45369;BME280;51342;55.250;37.668;2023-03-01T08:52:28;98983.28;;;-1.17;55.77
45369;BME280;51342;55.250;37.668;2023-03-01T08:55:01;98989.94;;;-1.09;55.70
45369;BME280;51342;55.250;37.668;2023-03-01T08:57:32;98997.97;;;-1.04;55.55
45369;BME280;51342;55.250;37.668;2023-03-01T09:00:04;98994.97;;;-1.00;55.23
45369;BME280;51342;55.250;37.668;2023-03-01T09:02:39;98992.84;;;-0.96;55.03
45369;BME280;51342;55.250;37.668;2023-03-01T09:05:10;98988.44;;;-0.88;55.44
45369;BME280;51342;55.250;37.668;2023-03-01T09:07:42;98984.25;;;-0.88;55.36
45369;BME280;51342;55.250;37.668;2023-03-01T09:10:13;98976.09;;;-0.94;55.53
45369;BME280;51342;55.250;37.668;2023-03-01T09:12:45;98979.41;;;-0.95;55.41
45369;BME280;51342;55.250;37.668;2023-03-01T09:15:16;98981.31;;;-0.92;55.31
45369;BME280;51342;55.250;37.668;2023-03-01T09:17:47;98980.19;;;-0.86;55.04
45369;BME280;51342;55.250;37.668;2023-03-01T09:20:19;98973.97;;;-0.89;55.43
45369;BME280;51342;55.250;37.668;2023-03-01T09:22:50;98973.97;;;-0.89;55.57
45369;BME280;51342;55.250;37.668;2023-03-01T09:25:22;98986.59;;;-0.81;55.51
45369;BME280;51342;55.250;37.668;2023-03-01T09:27:54;98981.56;;;-0.70;55.29
45369;BME280;51342;55.250;37.668;2023-03-01T09:30:26;98986.75;;;-0.79;55.23
45369;BME280;51342;55.250;37.668;2023-03-01T09:32:57;98985.44;;;-0.84;55.26
45369;BME280;51342;55.250;37.668;2023-03-01T09:35:29;98988.09;;;-0.83;55.04
45369;BME280;51342;55.250;37.668;2023-03-01T09:38:01;98985.56;;;-0.83;54.82
45369;BME280;51342;55.250;37.668;2023-03-01T09:40:32;98975.66;;;-0.80;54.88
45369;BME280;51342;55.250;37.668;2023-03-01T09:43:19;98989.13;;;-0.81;54.97
45369;BME280;51342;55.250;37.668;2023-03-01T09:45:56;98987.75;;;-0.77;55.08
45369;BME280;51342;55.250;37.668;2023-03-01T09:48:37;98986.13;;;-0.76;55.06
45369;BME280;51342;55.250;37.668;2023-03-01T09:51:19;98990.31;;;-0.77;54.85
45369;BME280;51342;55.250;37.668;2023-03-01T09:53:53;98986.13;;;-0.76;54.58
45369;BME280;51342;55.250;37.668;2023-03-01T09:56:33;98993.44;;;-0.80;54.94
45369;BME280;51342;55.250;37.668;2023-03-01T10:04:50;98998.63;;;-0.40;53.99
45369;BME280;51342;55.250;37.668;2023-03-01T10:10:31;98987.75;;;-0.29;54.10
45369;BME280;51342;55.250;37.668;2023-03-01T10:13:18;98987.75;;;-0.39;54.31
45369;BME280;51342;55.250;37.668;2023-03-01T10:15:55;98995.66;;;-0.55;54.21
45369;BME280;51342;55.250;37.668;2023-03-01T10:18:29;98998.47;;;-0.90;55.46
45369;BME280;51342;55.250;37.668;2023-03-01T10:21:15;99002.13;;;-0.96;54.75
45369;BME280;51342;55.250;37.668;2023-03-01T10:23:51;98996.06;;;-1.07;55.03
45369;BME280;51342;55.250;37.668;2023-03-01T10:26:51;98988.03;;;-1.12;55.20
45369;BME280;51342;55.250;37.668;2023-03-01T10:29:34;98996.09;;;-1.16;55.26
45369;BME280;51342;55.250;37.668;2023-03-01T10:32:09;99000.50;;;-1.23;55.52
45369;BME280;51342;55.250;37.668;2023-03-01T10:34:42;99003.03;;;-1.23;55.25
45369;BME280;51342;55.250;37.668;2023-03-01T10:37:16;99001.94;;;-1.17;55.13
45369;BME280;51342;55.250;37.668;2023-03-01T10:42:34;99006.13;;;-1.17;55.21
45369;BME280;51342;55.250;37.668;2023-03-01T10:45:30;99005.47;;;-1.06;55.24
45369;BME280;51342;55.250;37.668;2023-03-01T10:48:23;99009.31;;;-1.01;55.27
45369;BME280;51342;55.250;37.668;2023-03-01T10:53:38;99014.06;;;-0.95;55.10
45369;BME280;51342;55.250;37.668;2023-03-01T10:56:13;99017.59;;;-0.93;55.02
45369;BME280;51342;55.250;37.668;2023-03-01T10:59:00;99016.84;;;-0.92;54.65
45369;BME280;51342;55.250;37.668;2023-03-01T11:01:33;99022.47;;;-0.86;54.83
45369;BME280;51342;55.250;37.668;2023-03-01T11:06:38;99023.34;;;-1.04;54.02
45369;BME280;51342;55.250;37.668;2023-03-01T11:09:22;99009.25;;;-1.20;54.45
45369;BME280;51342;55.250;37.668;2023-03-01T11:11:55;99028.34;;;-1.15;55.04
45369;BME280;51342;55.250;37.668;2023-03-01T11:14:37;99028.34;;;-1.15;54.95
45369;BME280;51342;55.250;37.668;2023-03-01T11:22:51;99023.34;;;-1.23;54.16
45369;BME280;51342;55.250;37.668;2023-03-01T11:25:29;99031.84;;;-1.23;54.30
45369;BME280;51342;55.250;37.668;2023-03-01T11:28:04;99026.75;;;-1.23;54.20
45369;BME280;51342;55.250;37.668;2023-03-01T11:30:53;99030.38;;;-1.29;54.26
45369;BME280;51342;55.250;37.668;2023-03-01T11:33:52;99038.78;;;-1.39;54.39
45369;BME280;51342;55.250;37.668;2023-03-01T11:36:42;99035.53;;;-1.47;54.30
45369;BME280;51342;55.250;37.668;2023-03-01T11:44:36;99039.13;;;-1.53;54.64
45369;BME280;51342;55.250;37.668;2023-03-01T11:50:28;99038.16;;;-1.64;55.02
45369;BME280;51342;55.250;37.668;2023-03-01T11:53:45;99042.47;;;-1.63;54.89
45369;BME280;51342;55.250;37.668;2023-03-01T11:56:09;99042.69;;;-1.79;55.25
45369;BME280;51342;55.250;37.668;2023-03-01T11:59:12;99039.88;;;-1.91;55.15
45369;BME280;51342;55.250;37.668;2023-03-01T12:05:03;99061.75;;;-1.74;55.68
45369;BME280;51342;55.250;37.668;2023-03-01T12:10:23;99065.00;;;-1.66;55.44
45369;BME280;51342;55.250;37.668;2023-03-01T12:18:24;99051.16;;;-1.78;55.75
45369;BME280;51342;55.250;37.668;2023-03-01T12:21:08;99051.63;;;-1.82;55.58
45369;BME280;51342;55.250;37.668;2023-03-01T12:37:56;99068.78;;;-1.89;55.31
45369;BME280;51342;55.250;37.668;2023-03-01T12:40:58;99075.81;;;-1.86;55.55
45369;BME280;51342;55.250;37.668;2023-03-01T12:49:50;99069.53;;;-1.90;55.44
45369;BME280;51342;55.250;37.668;2023-03-01T12:55:01;99070.00;;;-1.85;55.79
45369;BME280;51342;55.250;37.668;2023-03-01T12:57:40;99072.66;;;-1.83;55.70
45369;BME280;51342;55.250;37.668;2023-03-01T13:00:45;99071.50;;;-1.87;56.14
45369;BME280;51342;55.250;37.668;2023-03-01T13:03:25;99070.13;;;-1.83;56.15
45369;BME280;51342;55.250;37.668;2023-03-01T13:06:19;99072.06;;;-1.81;56.27
45369;BME280;51342;55.250;37.668;2023-03-01T13:11:41;99070.00;;;-1.85;56.02
45369;BME280;51342;55.250;37.668;2023-03-01T13:16:56;99069.28;;;-1.93;56.28
45369;BME280;51342;55.250;37.668;2023-03-01T13:19:28;99073.59;;;-1.92;56.21
45369;BME280;51342;55.250;37.668;2023-03-01T13:22:32;99061.66;;;-2.01;56.35
45369;BME280;51342;55.250;37.668;2023-03-01T13:25:16;99066.56;;;-1.94;56.38
45369;BME280;51342;55.250;37.668;2023-03-01T13:27:49;99068.53;;;-1.92;56.48
45369;BME280;51342;55.250;37.668;2023-03-01T13:33:33;99065.00;;;-2.20;56.94
45369;BME280;51342;55.250;37.668;2023-03-01T13:36:02;99051.56;;;-2.19;56.81
45369;BME280;51342;55.250;37.668;2023-03-01T13:38:48;99052.91;;;-2.22;56.60
45369;BME280;51342;55.250;37.668;2023-03-01T13:44:29;99056.34;;;-2.30;56.87
45369;BME280;51342;55.250;37.668;2023-03-01T13:49:59;99060.84;;;-2.36;56.93
45369;BME280;51342;55.250;37.668;2023-03-01T13:52:43;99057.41;;;-2.37;56.57
45369;BME280;51342;55.250;37.668;2023-03-01T13:55:16;99059.94;;;-2.37;56.84
45369;BME280;51342;55.250;37.668;2023-03-01T13:57:51;99051.75;;;-2.43;56.43
45369;BME280;51342;55.250;37.668;2023-03-01T14:00:36;99047.69;;;-2.50;56.49
45369;BME280;51342;55.250;37.668;2023-03-01T14:03:17;99045.16;;;-2.50;56.92
45369;BME280;51342;55.250;37.668;2023-03-01T14:06:28;99054.44;;;-2.59;56.90
45369;BME280;51342;55.250;37.668;2023-03-01T14:09:27;99048.47;;;-2.59;57.13
45369;BME280;51342;55.250;37.668;2023-03-01T14:15:06;99058.28;;;-2.62;57.25
45369;BME280;51342;55.250;37.668;2023-03-01T14:17:52;99051.44;;;-2.63;57.10
45369;BME280;51342;55.250;37.668;2023-03-01T14:20:28;99054.72;;;-2.64;57.01
45369;BME280;51342;55.250;37.668;2023-03-01T14:23:12;99048.94;;;-2.72;57.07
45369;BME280;51342;55.250;37.668;2023-03-01T14:25:51;99046.69;;;-2.78;57.02
45369;BME280;51342;55.250;37.668;2023-03-01T14:28:31;99056.50;;;-2.81;56.87
45369;BME280;51342;55.250;37.668;2023-03-01T14:31:38;99047.72;;;-2.93;57.29
45369;BME280;51342;55.250;37.668;2023-03-01T14:34:20;99047.38;;;-2.96;57.34
45369;BME280;51342;55.250;37.668;2023-03-01T14:36:51;99050.66;;;-2.97;57.17
45369;BME280;51342;55.250;37.668;2023-03-01T14:39:25;99049.47;;;-3.01;57.46
45369;BME280;51342;55.250;37.668;2023-03-01T14:41:58;99046.63;;;-3.04;57.65
45369;BME280;51342;55.250;37.668;2023-03-01T14:44:29;99048.28;;;-3.04;57.74
45369;BME280;51342;55.250;37.668;2023-03-01T14:47:02;99045.00;;;-3.12;57.96
45369;BME280;51342;55.250;37.668;2023-03-01T14:49:34;99052.13;;;-3.08;58.01
45369;BME280;51342;55.250;37.668;2023-03-01T14:52:21;99037.38;;;-3.21;57.85
45369;BME280;51342;55.250;37.668;2023-03-01T14:54:53;99033.34;;;-3.18;58.14
45369;BME280;51342;55.250;37.668;2023-03-01T14:57:26;99038.41;;;-3.18;58.28
45369;BME280;51342;55.250;37.668;2023-03-01T14:59:59;99037.38;;;-3.21;58.32
45369;BME280;51342;55.250;37.668;2023-03-01T15:02:34;99039.59;;;-3.24;58.46
45369;BME280;51342;55.250;37.668;2023-03-01T15:05:07;99031.56;;;-3.28;58.54
45369;BME280;51342;55.250;37.668;2023-03-01T15:07:41;99033.03;;;-3.30;58.56
45369;BME280;51342;55.250;37.668;2023-03-01T15:10:25;99038.69;;;-3.33;58.44
45369;BME280;51342;55.250;37.668;2023-03-01T15:13:13;99034.81;;;-3.38;58.64
45369;BME280;51342;55.250;37.668;2023-03-01T15:15:46;99034.50;;;-3.41;58.89
45369;BME280;51342;55.250;37.668;2023-03-01T15:18:26;99033.31;;;-3.44;58.83
45369;BME280;51342;55.250;37.668;2023-03-01T15:21:09;99022.59;;;-3.51;58.81
45369;BME280;51342;55.250;37.668;2023-03-01T15:23:57;99027.63;;;-3.51;58.67